Time;durP1;ratioP1;P1;durP2;ratioP2;P2;SDS_P1;SDS_P2;PMS_P1;PMS_P2;Temp;Humidity;BMP_temperature;BMP_pressure;BME280_temperature;BME280_humidity;BME280_pressure;Samples;Min_cycle;Max_cycle;Signal;HPM_P1;HPM_P2
2022/01/26 00:06:57;;;;;;;120.65;55.33;;;;;;;;;;5103621;28;20400;-92
2022/01/26 00:09:26;;;;;;;118.50;53.60;;;;;;;;;;5099569;28;20899;-91
2022/01/26 00:11:55;;;;;;;125.30;56.30;;;;;;;;;;5097393;28;20454;-92
2022/01/26 00:14:22;;;;;;;113.03;54.05;;;;;;;;;;5110446;28;20458;-92
2022/01/26 00:16:49;;;;;;;116.15;52.47;;;;;;;;;;5110574;28;20406;-92
2022/01/26 00:19:21;;;;;;;116.30;53.92;;;;;;;;;;5092527;28;20455;-92
2022/01/26 00:21:51;;;;;;;123.35;56.63;;;;;;;;;;5110574;28;20409;-92
2022/01/26 00:24:48;;;;;;;117.45;53.95;;;;;;;;;;5110473;28;20470;-92
2022/01/26 00:27:30;;;;;;;122.68;54.70;;;;;;;;;;5102390;28;20395;-92
2022/01/26 00:31:12;;;;;;;124.68;55.97;;;;;;;;;;5090233;28;20409;-92
2022/01/26 00:34:17;;;;;;;115.70;54.42;;;;;;;;;;5095293;28;20467;-92
2022/01/26 00:38:43;;;;;;;125.68;59.50;;;;;;;;;;5091304;28;20785;-93
2022/01/26 00:41:16;;;;;;;136.23;62.97;;;;;;;;;;5107548;28;20403;-92
2022/01/26 00:43:49;;;;;;;138.80;63.90;;;;;;;;;;5103191;28;20479;-92
2022/01/26 00:46:17;;;;;;;140.52;65.15;;;;;;;;;;5104435;28;20941;-92
2022/01/26 00:48:44;;;;;;;138.88;63.35;;;;;;;;;;5107354;28;20501;-92
2022/01/26 00:51:15;;;;;;;140.25;64.93;;;;;;;;;;5103584;28;20403;-92
2022/01/26 00:53:46;;;;;;;159.32;65.63;;;;;;;;;;5092067;28;20479;-92
2022/01/26 00:56:15;;;;;;;145.05;66.43;;;;;;;;;;5109732;28;20446;-92
2022/01/26 00:58:42;;;;;;;142.97;64.27;;;;;;;;;;5109168;28;20410;-92
2022/01/26 01:01:09;;;;;;;140.55;64.20;;;;;;;;;;5109789;28;20483;-93
2022/01/26 01:03:42;;;;;;;136.37;63.63;;;;;;;;;;5090932;28;20420;-92
2022/01/26 01:06:14;;;;;;;138.32;65.35;;;;;;;;;;5091498;28;20433;-92
2022/01/26 01:08:42;;;;;;;153.82;64.78;;;;;;;;;;5096325;28;20408;-92
2022/01/26 01:11:10;;;;;;;157.35;63.88;;;;;;;;;;5105189;28;20428;-92
2022/01/26 01:13:41;;;;;;;151.52;62.60;;;;;;;;;;5106782;28;20410;-91
2022/01/26 01:16:11;;;;;;;152.00;64.78;;;;;;;;;;5108886;28;20498;-93
2022/01/26 01:18:44;;;;;;;166.10;61.55;;;;;;;;;;5108608;28;20414;-92
2022/01/26 01:21:48;;;;;;;145.00;62.22;;;;;;;;;;5109789;28;20428;-92
2022/01/26 01:24:56;;;;;;;148.25;63.17;;;;;;;;;;5102621;28;20382;-92
2022/01/26 01:27:51;;;;;;;145.68;62.47;;;;;;;;;;5109147;28;20486;-92
2022/01/26 01:30:28;;;;;;;141.43;61.58;;;;;;;;;;5109392;28;20845;-92
2022/01/26 01:33:05;;;;;;;154.48;61.50;;;;;;;;;;5078272;28;20403;-92
2022/01/26 01:35:35;;;;;;;163.67;63.70;;;;;;;;;;5106761;28;20485;-92
2022/01/26 01:38:08;;;;;;;163.70;62.45;;;;;;;;;;5108116;28;20411;-93
2022/01/26 01:40:36;;;;;;;169.57;62.90;;;;;;;;;;5108609;28;20410;-92
2022/01/26 01:43:04;;;;;;;175.20;64.20;;;;;;;;;;5108810;28;20415;-93
2022/01/26 01:45:37;;;;;;;144.75;62.67;;;;;;;;;;5107897;28;21891;-92
2022/01/26 01:48:06;;;;;;;156.35;62.83;;;;;;;;;;5109434;28;20867;-92
2022/01/26 01:50:39;;;;;;;151.00;60.17;;;;;;;;;;5109025;28;20450;-92
2022/01/26 01:53:06;;;;;;;136.38;58.42;;;;;;;;;;5109104;28;20417;-92
2022/01/26 01:55:34;;;;;;;133.40;56.90;;;;;;;;;;5108983;28;20410;-93
2022/01/26 01:58:01;;;;;;;146.30;57.15;;;;;;;;;;5107295;28;20407;-92
2022/01/26 02:00:29;;;;;;;130.30;56.47;;;;;;;;;;5108957;28;20402;-92
2022/01/26 02:03:00;;;;;;;129.60;58.30;;;;;;;;;;5108985;28;20414;-92
2022/01/26 02:05:26;;;;;;;132.77;57.95;;;;;;;;;;5094109;28;20399;-92
2022/01/26 02:07:54;;;;;;;130.57;57.73;;;;;;;;;;5089219;28;20493;-92
2022/01/26 02:10:23;;;;;;;121.63;56.30;;;;;;;;;;5105543;28;20506;-91
2022/01/26 02:12:53;;;;;;;124.35;57.35;;;;;;;;;;5109616;28;20428;-92
2022/01/26 02:15:24;;;;;;;126.57;57.43;;;;;;;;;;5094762;28;20449;-92
2022/01/26 02:51:12;;;;;;;136.85;57.38;;;;;;;;;;5114463;28;20401;-91
2022/01/26 02:53:53;;;;;;;127.20;54.85;;;;;;;;;;5114284;28;20417;-92
2022/01/26 02:56:26;;;;;;;128.30;55.83;;;;;;;;;;5113943;28;20909;-91
2022/01/26 03:01:53;;;;;;;129.63;57.65;;;;;;;;;;5101814;28;20532;-92
2022/01/26 03:04:29;;;;;;;134.20;56.92;;;;;;;;;;5111616;28;20504;-92
2022/01/26 03:07:02;;;;;;;133.70;56.85;;;;;;;;;;5113862;28;20486;-92
2022/01/26 03:09:35;;;;;;;141.57;57.03;;;;;;;;;;5113630;28;20398;-92
2022/01/26 03:12:04;;;;;;;136.73;56.35;;;;;;;;;;5113239;28;20415;-93
2022/01/26 03:14:41;;;;;;;134.00;55.95;;;;;;;;;;5094980;28;20414;-92
2022/01/26 03:17:17;;;;;;;129.75;55.45;;;;;;;;;;5088842;28;20396;-92
2022/01/26 03:19:47;;;;;;;124.23;54.53;;;;;;;;;;5092147;28;20434;-92
2022/01/26 03:28:12;;;;;;;120.40;53.47;;;;;;;;;;5074445;28;20879;-92
2022/01/26 03:31:03;;;;;;;113.57;52.90;;;;;;;;;;5089957;28;20392;-92
2022/01/26 03:33:51;;;;;;;109.10;51.40;;;;;;;;;;5104981;28;20403;-91
2022/01/26 03:36:18;;;;;;;110.07;50.50;;;;;;;;;;5094038;28;20434;-92
2022/01/26 03:38:48;;;;;;;111.13;51.08;;;;;;;;;;5111536;28;20407;-92
2022/01/26 03:41:30;;;;;;;116.18;53.80;;;;;;;;;;5111918;28;20415;-92
2022/01/26 03:43:58;;;;;;;111.45;53.67;;;;;;;;;;5093549;28;20437;-92
2022/01/26 03:46:25;;;;;;;114.78;52.95;;;;;;;;;;5092794;28;20409;-91
2022/01/26 03:48:52;;;;;;;110.57;52.53;;;;;;;;;;5093461;28;20882;-92
2022/01/26 03:51:19;;;;;;;112.93;53.88;;;;;;;;;;5090821;28;20457;-92
2022/01/26 03:53:46;;;;;;;106.68;50.75;;;;;;;;;;5102400;28;20410;-91
2022/01/26 03:56:13;;;;;;;102.05;50.80;;;;;;;;;;5111403;28;20414;-91
2022/01/26 03:58:43;;;;;;;107.53;51.60;;;;;;;;;;5076174;28;20955;-92
2022/01/26 04:01:13;;;;;;;100.95;50.60;;;;;;;;;;5093166;28;20455;-92
2022/01/26 04:03:39;;;;;;;95.75;49.50;;;;;;;;;;5097844;28;20489;-92
2022/01/26 04:06:06;;;;;;;100.28;48.72;;;;;;;;;;5090595;28;20729;-92
2022/01/26 04:08:35;;;;;;;95.13;48.10;;;;;;;;;;5090069;28;20403;-92
2022/01/26 04:11:16;;;;;;;98.13;47.95;;;;;;;;;;5090957;28;20401;-91
2022/01/26 04:13:44;;;;;;;99.25;49.95;;;;;;;;;;5090631;28;20403;-92
2022/01/26 04:16:11;;;;;;;96.70;48.90;;;;;;;;;;5090548;28;20412;-91
2022/01/26 04:18:40;;;;;;;97.28;48.15;;;;;;;;;;5090102;28;20907;-92
2022/01/26 04:21:16;;;;;;;99.40;49.23;;;;;;;;;;5090724;28;20410;-91
2022/01/26 04:23:48;;;;;;;99.63;49.42;;;;;;;;;;5067599;28;20394;-92
2022/01/26 04:26:19;;;;;;;98.22;49.55;;;;;;;;;;5110699;28;20411;-92
2022/01/26 04:28:53;;;;;;;101.03;49.87;;;;;;;;;;5110487;28;20412;-92
2022/01/26 04:31:21;;;;;;;98.75;49.90;;;;;;;;;;5111171;28;20819;-92
2022/01/26 04:33:49;;;;;;;99.95;50.83;;;;;;;;;;5092439;28;20934;-91
2022/01/26 04:36:23;;;;;;;100.10;49.30;;;;;;;;;;5108734;28;20414;-92
2022/01/26 04:38:54;;;;;;;101.75;51.22;;;;;;;;;;5110539;28;20962;-91
2022/01/26 04:41:29;;;;;;;102.03;50.53;;;;;;;;;;5092789;28;20432;-91
2022/01/26 04:44:02;;;;;;;96.63;48.63;;;;;;;;;;5110446;28;20422;-91
2022/01/26 04:46:30;;;;;;;91.75;48.55;;;;;;;;;;5110065;28;20506;-92
2022/01/26 04:48:57;;;;;;;101.45;49.20;;;;;;;;;;5110506;28;20406;-91
2022/01/26 04:51:23;;;;;;;102.97;51.23;;;;;;;;;;5110483;28;20805;-90
2022/01/26 04:53:50;;;;;;;101.15;50.45;;;;;;;;;;5110661;28;20423;-91
2022/01/26 04:56:18;;;;;;;105.70;50.30;;;;;;;;;;5111466;28;20406;-91
2022/01/26 04:58:45;;;;;;;110.50;50.92;;;;;;;;;;5092372;28;20483;-91
2022/01/26 05:01:13;;;;;;;109.90;52.25;;;;;;;;;;5111171;28;20403;-91
2022/01/26 05:03:40;;;;;;;116.82;51.05;;;;;;;;;;5111321;28;21341;-91
2022/01/26 05:06:08;;;;;;;111.18;51.17;;;;;;;;;;5095340;28;20408;-91
2022/01/26 05:08:36;;;;;;;120.82;52.70;;;;;;;;;;5110441;28;20398;-91
2022/01/26 05:11:04;;;;;;;116.13;50.37;;;;;;;;;;5114202;28;20563;-92
2022/01/26 05:13:31;;;;;;;120.40;56.90;;;;;;;;;;5130614;28;20444;-91
2022/01/26 05:15:58;;;;;;;114.25;48.10;;;;;;;;;;5111127;28;20422;-91
2022/01/26 05:18:26;;;;;;;101.45;47.65;;;;;;;;;;5109720;28;20399;-90
2022/01/26 05:20:53;;;;;;;104.65;46.38;;;;;;;;;;5109194;28;20402;-92
2022/01/26 05:23:20;;;;;;;98.75;45.90;;;;;;;;;;5105144;28;20483;-92
2022/01/26 05:25:47;;;;;;;91.93;44.63;;;;;;;;;;5109895;28;20403;-93
2022/01/26 05:28:14;;;;;;;96.68;44.00;;;;;;;;;;5109411;28;20418;-93
2022/01/26 05:30:41;;;;;;;90.32;42.92;;;;;;;;;;5109185;28;20406;-93
2022/01/26 05:33:08;;;;;;;95.90;45.78;;;;;;;;;;5109222;28;20463;-93
2022/01/26 05:35:37;;;;;;;96.87;45.83;;;;;;;;;;5104747;28;20455;-93
2022/01/26 05:38:04;;;;;;;91.95;43.92;;;;;;;;;;5108912;28;20413;-92
2022/01/26 05:40:31;;;;;;;92.90;43.80;;;;;;;;;;5091310;28;20403;-93
2022/01/26 05:42:58;;;;;;;89.05;44.70;;;;;;;;;;5106867;28;20460;-91
2022/01/26 05:45:30;;;;;;;94.38;43.72;;;;;;;;;;5073248;28;20404;-92
2022/01/26 05:47:57;;;;;;;95.07;44.53;;;;;;;;;;5088812;28;20412;-93
2022/01/26 05:50:24;;;;;;;92.40;42.63;;;;;;;;;;5088908;28;20429;-93
2022/01/26 05:52:53;;;;;;;89.75;44.28;;;;;;;;;;5088822;28;20404;-92
2022/01/26 05:55:20;;;;;;;88.18;43.10;;;;;;;;;;5087683;28;20424;-93
2022/01/26 05:57:47;;;;;;;89.30;43.38;;;;;;;;;;5076484;28;20467;-92
2022/01/26 06:00:14;;;;;;;97.95;44.40;;;;;;;;;;5087152;28;20408;-92
2022/01/26 06:02:42;;;;;;;102.88;41.65;;;;;;;;;;5086966;28;20397;-92
2022/01/26 06:05:09;;;;;;;97.87;44.37;;;;;;;;;;5084671;28;20892;-92
2022/01/26 06:07:37;;;;;;;100.38;45.63;;;;;;;;;;5082825;28;20404;-93
2022/01/26 06:10:06;;;;;;;100.38;45.45;;;;;;;;;;5089621;28;20421;-92
2022/01/26 06:12:34;;;;;;;97.50;44.95;;;;;;;;;;5085625;28;20432;-94
2022/01/26 06:15:01;;;;;;;122.38;45.92;;;;;;;;;;5077973;28;20408;-93
2022/01/26 06:17:29;;;;;;;102.30;45.85;;;;;;;;;;5092973;28;20451;-92
2022/01/26 06:19:56;;;;;;;105.40;45.85;;;;;;;;;;5093128;28;20981;-93
2022/01/26 06:22:23;;;;;;;103.63;45.23;;;;;;;;;;5090600;28;20453;-92
2022/01/26 06:24:50;;;;;;;97.97;46.22;;;;;;;;;;5087154;28;20419;-92
2022/01/26 06:27:21;;;;;;;112.18;46.20;;;;;;;;;;5090298;28;20411;-90
2022/01/26 06:29:48;;;;;;;109.55;45.20;;;;;;;;;;5089119;28;20419;-93
2022/01/26 06:32:17;;;;;;;103.05;45.00;;;;;;;;;;5086386;28;20408;-92
2022/01/26 06:34:44;;;;;;;122.32;46.53;;;;;;;;;;5104771;28;20555;-91
2022/01/26 06:37:10;;;;;;;114.82;46.38;;;;;;;;;;5088404;28;20705;-89
2022/01/26 06:39:38;;;;;;;106.57;46.70;;;;;;;;;;5096692;28;20449;-88
2022/01/26 06:42:12;;;;;;;102.63;46.10;;;;;;;;;;5099324;28;20739;-88
2022/01/26 06:44:50;;;;;;;108.30;46.17;;;;;;;;;;5099019;28;20406;-87
2022/01/26 06:47:32;;;;;;;111.70;47.30;;;;;;;;;;5109584;28;20394;-87
2022/01/26 06:50:02;;;;;;;111.18;46.75;;;;;;;;;;5104524;28;20469;-89
2022/01/26 06:52:29;;;;;;;102.25;46.45;;;;;;;;;;5087592;28;20443;-89
2022/01/26 06:54:56;;;;;;;108.03;46.35;;;;;;;;;;5098113;28;21226;-89
2022/01/26 06:57:23;;;;;;;95.70;45.63;;;;;;;;;;5108213;28;20414;-89
2022/01/26 06:59:52;;;;;;;99.68;46.20;;;;;;;;;;5107337;28;20394;-88
2022/01/26 07:02:19;;;;;;;103.40;47.08;;;;;;;;;;5104868;28;20397;-88
2022/01/26 07:04:46;;;;;;;117.80;46.40;;;;;;;;;;5103852;28;20463;-86
2022/01/26 07:07:13;;;;;;;94.45;45.75;;;;;;;;;;5071094;28;20736;-88
2022/01/26 07:09:40;;;;;;;99.53;46.30;;;;;;;;;;5108593;28;20390;-88
2022/01/26 07:12:08;;;;;;;88.35;44.08;;;;;;;;;;5106438;28;20426;-88
2022/01/26 07:23:04;;;;;;;99.72;47.30;;;;;;;;;;5031719;28;20817;-88
2022/01/26 07:25:31;;;;;;;95.40;46.10;;;;;;;;;;5083697;28;20403;-87
2022/01/26 07:27:58;;;;;;;103.32;48.08;;;;;;;;;;5100587;28;20404;-87
2022/01/26 07:30:25;;;;;;;101.18;47.92;;;;;;;;;;5103807;28;20403;-87
2022/01/26 07:32:54;;;;;;;103.40;48.15;;;;;;;;;;5105474;28;20395;-87
2022/01/26 07:35:21;;;;;;;103.65;48.20;;;;;;;;;;5103152;28;20417;-86
2022/01/26 07:37:48;;;;;;;103.17;47.20;;;;;;;;;;5088282;28;20427;-87
2022/01/26 07:40:15;;;;;;;100.00;48.30;;;;;;;;;;5082139;28;20398;-88
2022/01/26 07:42:42;;;;;;;102.83;47.17;;;;;;;;;;5107165;28;20490;-89
2022/01/26 07:45:11;;;;;;;96.97;47.78;;;;;;;;;;5102811;28;20400;-89
2022/01/26 07:47:38;;;;;;;107.13;48.45;;;;;;;;;;5103308;28;20460;-88
2022/01/26 07:50:11;;;;;;;103.95;48.15;;;;;;;;;;5109954;28;20952;-88
2022/01/26 07:52:40;;;;;;;98.03;47.60;;;;;;;;;;5101995;28;20459;-87
2022/01/26 07:55:09;;;;;;;104.35;47.50;;;;;;;;;;5099060;28;20483;-88
2022/01/26 07:57:36;;;;;;;100.65;47.65;;;;;;;;;;5102051;28;20418;-88
2022/01/26 08:00:05;;;;;;;108.45;47.42;;;;;;;;;;5115447;28;20452;-88
2022/01/26 08:02:32;;;;;;;107.05;47.25;;;;;;;;;;5117031;28;20398;-87
2022/01/26 08:04:58;;;;;;;107.70;48.80;;;;;;;;;;5125608;28;20398;-88
2022/01/26 08:07:27;;;;;;;103.03;45.40;;;;;;;;;;5114212;28;21087;-88
2022/01/26 08:09:54;;;;;;;103.40;48.00;;;;;;;;;;5099546;28;20455;-87
2022/01/26 08:12:21;;;;;;;105.47;48.25;;;;;;;;;;5106128;28;20407;-88
2022/01/26 08:14:48;;;;;;;104.43;46.70;;;;;;;;;;5105667;28;20391;-88
2022/01/26 08:17:15;;;;;;;110.43;47.93;;;;;;;;;;5105786;28;20433;-88
2022/01/26 08:19:42;;;;;;;100.45;45.80;;;;;;;;;;5100381;28;20406;-87
2022/01/26 08:22:16;;;;;;;102.28;46.10;;;;;;;;;;5103631;28;20395;-88
2022/01/26 08:24:45;;;;;;;106.57;48.28;;;;;;;;;;5104303;28;20433;-88
2022/01/26 08:27:14;;;;;;;106.88;47.38;;;;;;;;;;5099491;28;20406;-88
2022/01/26 08:29:44;;;;;;;107.75;47.00;;;;;;;;;;5100263;28;20535;-87
2022/01/26 08:32:11;;;;;;;106.25;47.38;;;;;;;;;;5100865;28;20459;-88
2022/01/26 08:34:38;;;;;;;106.43;48.80;;;;;;;;;;5095055;28;20407;-87
2022/01/26 08:37:06;;;;;;;107.07;47.17;;;;;;;;;;5095059;28;20484;-88
2022/01/26 08:39:34;;;;;;;104.47;47.63;;;;;;;;;;5099053;28;20391;-88
2022/01/26 08:42:05;;;;;;;99.97;47.03;;;;;;;;;;5095938;28;20405;-88
2022/01/26 08:44:32;;;;;;;119.13;49.08;;;;;;;;;;5100461;28;20414;-88
2022/01/26 08:46:59;;;;;;;105.13;48.22;;;;;;;;;;5080243;28;21042;-88
2022/01/26 08:52:09;;;;;;;94.75;44.83;;;;;;;;;;5093762;28;20878;-87
2022/01/26 08:54:36;;;;;;;93.80;44.83;;;;;;;;;;5095223;28;20399;-89
2022/01/26 08:57:05;;;;;;;113.03;45.07;;;;;;;;;;5096740;28;20459;-88
2022/01/26 08:59:32;;;;;;;99.72;44.15;;;;;;;;;;5096675;28;20396;-87
2022/01/26 09:01:59;;;;;;;96.60;42.92;;;;;;;;;;5091208;28;20416;-87
2022/01/26 09:04:26;;;;;;;102.97;44.65;;;;;;;;;;5092407;28;20412;-88
2022/01/26 09:06:55;;;;;;;96.97;43.78;;;;;;;;;;5092482;28;20830;-88
2022/01/26 09:09:23;;;;;;;95.43;42.85;;;;;;;;;;5096860;28;20407;-88
2022/01/26 09:11:51;;;;;;;96.30;42.78;;;;;;;;;;5099983;28;20737;-88
2022/01/26 09:14:22;;;;;;;89.85;41.97;;;;;;;;;;5099025;28;20484;-88
2022/01/26 09:16:51;;;;;;;86.22;41.95;;;;;;;;;;5114193;28;20390;-87
2022/01/26 09:19:26;;;;;;;90.50;41.90;;;;;;;;;;5118247;28;20632;-87
2022/01/26 09:21:54;;;;;;;87.80;42.83;;;;;;;;;;5116621;27;20432;-87
2022/01/26 09:24:21;;;;;;;84.63;42.53;;;;;;;;;;5108659;28;20468;-87
2022/01/26 09:26:48;;;;;;;86.57;43.85;;;;;;;;;;5117050;28;20387;-87
2022/01/26 09:29:15;;;;;;;85.90;43.88;;;;;;;;;;5117708;28;20376;-87
2022/01/26 09:31:47;;;;;;;80.50;41.65;;;;;;;;;;5118157;28;20466;-87
2022/01/26 09:34:15;;;;;;;82.97;42.92;;;;;;;;;;5119347;28;20399;-87
2022/01/26 09:36:42;;;;;;;82.53;42.58;;;;;;;;;;5109542;28;20404;-87
2022/01/26 09:39:09;;;;;;;86.55;44.05;;;;;;;;;;5093636;28;20404;-87
2022/01/26 09:41:37;;;;;;;85.32;44.08;;;;;;;;;;5098986;28;20485;-87
2022/01/26 09:44:05;;;;;;;84.28;44.47;;;;;;;;;;5094454;28;20402;-88
2022/01/26 09:46:32;;;;;;;83.95;44.30;;;;;;;;;;5075991;28;20853;-87
2022/01/26 09:49:01;;;;;;;79.25;42.90;;;;;;;;;;5076059;28;20734;-87
2022/01/26 09:51:31;;;;;;;79.00;43.60;;;;;;;;;;5074417;28;20443;-86
2022/01/26 09:54:03;;;;;;;78.82;45.10;;;;;;;;;;5075716;28;20975;-87
2022/01/26 09:56:31;;;;;;;74.67;43.23;;;;;;;;;;5082801;28;20404;-87
2022/01/26 09:58:58;;;;;;;76.72;43.42;;;;;;;;;;5087676;28;20416;-88
2022/01/26 10:01:25;;;;;;;78.57;44.25;;;;;;;;;;5078996;28;20403;-87
2022/01/26 10:03:53;;;;;;;76.25;44.35;;;;;;;;;;5078098;28;20416;-87
2022/01/26 10:06:26;;;;;;;79.93;45.25;;;;;;;;;;5082621;28;20751;-86
2022/01/26 10:09:02;;;;;;;77.53;43.17;;;;;;;;;;5080306;28;20432;-86
2022/01/26 10:17:26;;;;;;;81.22;44.38;;;;;;;;;;5084540;28;20419;-86
2022/01/26 10:19:58;;;;;;;77.97;43.80;;;;;;;;;;5083442;28;21040;-87
2022/01/26 10:22:32;;;;;;;81.57;45.58;;;;;;;;;;5074204;28;20410;-87
2022/01/26 10:25:08;;;;;;;74.65;43.15;;;;;;;;;;5077733;28;20415;-87
2022/01/26 10:27:39;;;;;;;82.03;47.43;;;;;;;;;;5071299;28;20398;-86
2022/01/26 10:30:08;;;;;;;82.47;46.33;;;;;;;;;;5083214;28;20529;-85
2022/01/26 10:32:35;;;;;;;77.25;44.83;;;;;;;;;;5084448;28;20436;-86
2022/01/26 10:35:04;;;;;;;78.32;45.50;;;;;;;;;;5081799;28;20808;-87
2022/01/26 10:37:32;;;;;;;80.18;45.72;;;;;;;;;;5084255;28;20413;-88
2022/01/26 10:40:16;;;;;;;76.80;44.75;;;;;;;;;;5082594;28;20453;-87
2022/01/26 10:42:56;;;;;;;75.70;43.30;;;;;;;;;;5079610;28;20434;-88
2022/01/26 10:45:55;;;;;;;91.65;50.60;;;;;;;;;;5094668;28;20411;-88
2022/01/26 10:48:28;;;;;;;76.03;44.45;;;;;;;;;;5096588;28;20442;-87
2022/01/26 10:54:10;;;;;;;80.40;45.53;;;;;;;;;;5046660;28;20484;-88
2022/01/26 10:56:39;;;;;;;74.53;43.55;;;;;;;;;;5109267;28;21138;-87
2022/01/26 10:59:06;;;;;;;82.93;46.30;;;;;;;;;;5101955;28;20423;-88
2022/01/26 11:01:36;;;;;;;80.37;46.17;;;;;;;;;;5110196;28;20396;-87
2022/01/26 11:04:04;;;;;;;79.20;44.05;;;;;;;;;;5116899;28;20417;-88
2022/01/26 11:06:31;;;;;;;82.40;48.50;;;;;;;;;;5121226;28;20402;-88
2022/01/26 11:09:10;;;;;;;80.43;47.60;;;;;;;;;;5127008;28;20404;-88
2022/01/26 11:11:39;;;;;;;79.45;45.00;;;;;;;;;;5125009;27;20417;-88
2022/01/26 11:14:14;;;;;;;83.55;45.80;;;;;;;;;;5090900;28;20417;-89
2022/01/26 11:16:53;;;;;;;79.97;46.38;;;;;;;;;;5101412;28;20886;-87
2022/01/26 11:19:21;;;;;;;86.82;47.13;;;;;;;;;;5105684;28;20483;-88
2022/01/26 11:21:48;;;;;;;86.10;46.97;;;;;;;;;;5104872;28;20399;-88
2022/01/26 11:24:19;;;;;;;84.22;47.10;;;;;;;;;;5101921;28;20407;-88
2022/01/26 11:26:48;;;;;;;84.50;47.88;;;;;;;;;;5103631;28;20411;-87
2022/01/26 11:29:20;;;;;;;83.40;47.63;;;;;;;;;;5097641;28;20415;-88
2022/01/26 11:31:48;;;;;;;89.38;51.38;;;;;;;;;;5084191;28;20430;-88
2022/01/26 11:34:19;;;;;;;88.30;50.70;;;;;;;;;;5104720;28;20407;-88
2022/01/26 11:36:48;;;;;;;83.53;47.88;;;;;;;;;;5103618;28;20400;-88
2022/01/26 11:42:31;;;;;;;81.70;46.70;;;;;;;;;;5099637;28;20391;-88
2022/01/26 11:45:08;;;;;;;88.35;46.92;;;;;;;;;;5109177;28;20761;-88
2022/01/26 11:47:38;;;;;;;83.57;46.03;;;;;;;;;;5104570;28;20414;-88
2022/01/26 11:50:12;;;;;;;84.82;45.53;;;;;;;;;;5104281;28;20400;-88
2022/01/26 11:52:40;;;;;;;84.17;45.90;;;;;;;;;;5106733;28;20406;-87
2022/01/26 11:55:27;;;;;;;85.43;48.17;;;;;;;;;;5105861;28;20433;-89
2022/01/26 11:57:55;;;;;;;85.47;46.90;;;;;;;;;;5100060;28;20685;-86
2022/01/26 12:00:39;;;;;;;89.15;47.03;;;;;;;;;;5104539;28;20413;-86
2022/01/26 12:03:10;;;;;;;84.57;44.93;;;;;;;;;;5105754;28;20429;-87
2022/01/26 12:05:47;;;;;;;87.53;46.65;;;;;;;;;;5100294;28;20457;-88
2022/01/26 12:08:15;;;;;;;88.78;47.33;;;;;;;;;;5101619;28;20428;-88
2022/01/26 12:10:45;;;;;;;96.93;50.22;;;;;;;;;;5096006;28;20408;-87
2022/01/26 12:13:16;;;;;;;93.20;48.25;;;;;;;;;;5099366;28;20396;-86
2022/01/26 12:15:48;;;;;;;85.35;45.88;;;;;;;;;;5101789;28;20407;-86
2022/01/26 12:18:27;;;;;;;88.45;46.72;;;;;;;;;;5096043;28;21463;-85
2022/01/26 12:32:27;;;;;;;91.90;48.58;;;;;;;;;;5107327;28;20402;-87
2022/01/26 12:35:02;;;;;;;89.63;47.80;;;;;;;;;;5105756;28;20435;-86
2022/01/26 12:37:40;;;;;;;85.80;48.28;;;;;;;;;;5103827;28;20430;-86
2022/01/26 12:43:03;;;;;;;87.75;47.35;;;;;;;;;;5094184;28;20414;-85
2022/01/26 12:45:30;;;;;;;84.93;45.72;;;;;;;;;;5100327;28;20901;-85
2022/01/26 12:47:59;;;;;;;83.10;45.83;;;;;;;;;;5100309;28;20734;-84
2022/01/26 12:50:27;;;;;;;84.35;46.05;;;;;;;;;;5100125;28;20479;-86
2022/01/26 12:52:56;;;;;;;89.23;47.73;;;;;;;;;;5095368;28;20513;-87
2022/01/26 12:55:26;;;;;;;91.77;48.50;;;;;;;;;;5094794;28;20408;-87
2022/01/26 12:57:59;;;;;;;91.40;48.60;;;;;;;;;;5098343;28;20406;-87
2022/01/26 13:00:41;;;;;;;90.57;47.80;;;;;;;;;;5096681;28;20426;-84
2022/01/26 13:03:19;;;;;;;88.60;48.30;;;;;;;;;;5097615;28;20880;-87
2022/01/26 13:06:00;;;;;;;94.32;49.00;;;;;;;;;;5078323;28;20490;-87
2022/01/26 13:08:40;;;;;;;89.15;48.08;;;;;;;;;;5078706;28;20406;-87
2022/01/26 13:11:09;;;;;;;87.85;47.92;;;;;;;;;;5100093;28;20407;-87
2022/01/26 13:13:38;;;;;;;86.85;46.25;;;;;;;;;;5093271;28;20398;-85
2022/01/26 13:16:17;;;;;;;88.07;47.80;;;;;;;;;;5098756;28;20478;-86
2022/01/26 13:22:13;;;;;;;85.22;47.63;;;;;;;;;;5090567;28;20754;-87
2022/01/26 13:27:43;;;;;;;89.57;48.15;;;;;;;;;;5081591;28;20387;-88
2022/01/26 13:30:27;;;;;;;89.95;47.90;;;;;;;;;;5099903;28;20403;-84
2022/01/26 13:33:24;;;;;;;87.40;47.78;;;;;;;;;;5092873;28;20400;-85
2022/01/26 13:36:06;;;;;;;85.75;47.42;;;;;;;;;;5095462;28;20410;-87
2022/01/26 13:38:48;;;;;;;83.20;47.53;;;;;;;;;;5077744;28;20716;-87
2022/01/26 13:41:34;;;;;;;80.20;44.77;;;;;;;;;;5082530;28;20392;-87
2022/01/26 13:47:10;;;;;;;78.63;44.88;;;;;;;;;;5100293;28;20386;-85
2022/01/26 13:49:57;;;;;;;82.30;45.78;;;;;;;;;;5094674;28;20408;-85
2022/01/26 13:52:36;;;;;;;81.82;46.63;;;;;;;;;;5095729;28;20488;-84
2022/01/26 13:55:29;;;;;;;78.10;45.47;;;;;;;;;;5092968;28;20435;-85
2022/01/26 13:58:28;;;;;;;73.25;45.20;;;;;;;;;;5095222;28;25101;-85
2022/01/26 14:01:02;;;;;;;80.25;47.08;;;;;;;;;;5091763;28;20419;-86
2022/01/26 14:03:34;;;;;;;76.78;44.83;;;;;;;;;;5091478;28;20902;-85
2022/01/26 14:06:03;;;;;;;84.95;46.63;;;;;;;;;;5095849;28;20425;-86
2022/01/26 14:08:32;;;;;;;75.38;44.50;;;;;;;;;;5093663;28;20408;-86
2022/01/26 14:11:02;;;;;;;76.00;44.92;;;;;;;;;;5095588;28;20475;-86
2022/01/26 14:13:30;;;;;;;75.10;44.15;;;;;;;;;;5094164;28;20407;-85
2022/01/26 14:15:59;;;;;;;82.15;47.78;;;;;;;;;;5094058;28;20395;-86
2022/01/26 14:21:31;;;;;;;81.78;46.72;;;;;;;;;;5099368;28;20395;-86
2022/01/26 14:26:53;;;;;;;79.78;46.05;;;;;;;;;;5096240;28;20382;-87
2022/01/26 14:29:31;;;;;;;78.82;45.65;;;;;;;;;;5098675;28;20733;-86
2022/01/26 14:32:22;;;;;;;77.20;44.38;;;;;;;;;;5101839;28;20452;-86
2022/01/26 14:51:52;;;;;;;85.88;47.25;;;;;;;;;;5109788;28;20440;-86
2022/01/26 15:19:31;;;;;;;93.15;48.13;;;;;;;;;;5101380;28;20407;-85
2022/01/26 15:31:09;;;;;;;97.13;51.00;;;;;;;;;;5106046;28;20409;-87
2022/01/26 15:33:39;;;;;;;97.57;50.42;;;;;;;;;;5103420;28;20397;-84
2022/01/26 15:44:51;;;;;;;96.93;51.33;;;;;;;;;;5080604;28;20401;-84
2022/01/26 15:50:23;;;;;;;97.75;53.00;;;;;;;;;;5104056;28;20398;-85
2022/01/26 15:52:57;;;;;;;108.90;58.25;;;;;;;;;;5105366;28;20829;-85
2022/01/26 15:58:24;;;;;;;98.00;51.27;;;;;;;;;;5105638;28;20390;-86
2022/01/26 16:06:28;;;;;;;99.83;51.30;;;;;;;;;;5107715;28;20394;-86
2022/01/26 16:39:27;;;;;;;100.68;54.20;;;;;;;;;;5108024;28;20425;-85
2022/01/26 18:05:37;;;;;;;133.02;71.13;;;;;;;;;;5098463;28;20385;-86
2022/01/26 18:16:01;;;;;;;151.23;81.93;;;;;;;;;;5105447;28;20487;-89
2022/01/26 18:26:48;;;;;;;247.25;126.32;;;;;;;;;;5066237;28;20388;-88
2022/01/26 18:32:17;;;;;;;217.52;111.43;;;;;;;;;;5094404;28;20415;-88
2022/01/26 18:51:20;;;;;;;174.90;95.50;;;;;;;;;;5097433;28;20917;-87
2022/01/26 18:53:47;;;;;;;155.53;84.87;;;;;;;;;;5092565;28;20969;-88
2022/01/26 18:56:14;;;;;;;135.07;72.38;;;;;;;;;;5103133;28;20419;-87
2022/01/26 18:58:42;;;;;;;132.60;72.90;;;;;;;;;;5096734;28;20430;-89
2022/01/26 19:01:11;;;;;;;138.48;73.10;;;;;;;;;;5100174;28;20402;-89
2022/01/26 19:03:38;;;;;;;135.50;70.50;;;;;;;;;;5103329;28;20452;-88
2022/01/26 19:06:06;;;;;;;134.27;71.00;;;;;;;;;;5105153;28;20406;-87
2022/01/26 19:08:33;;;;;;;132.23;70.90;;;;;;;;;;5086661;28;20398;-89
2022/01/26 19:11:00;;;;;;;128.23;67.72;;;;;;;;;;5102610;28;20491;-89
2022/01/26 19:13:30;;;;;;;130.00;68.00;;;;;;;;;;5101317;28;20762;-88
2022/01/26 19:16:05;;;;;;;127.80;67.57;;;;;;;;;;5094711;28;20620;-89
2022/01/26 19:18:50;;;;;;;127.03;66.22;;;;;;;;;;5095931;28;20467;-87
2022/01/26 19:21:24;;;;;;;128.25;67.03;;;;;;;;;;5101519;28;20921;-88
2022/01/26 19:24:16;;;;;;;126.88;67.38;;;;;;;;;;5099158;28;20403;-88
2022/01/26 19:26:49;;;;;;;129.23;67.33;;;;;;;;;;5091050;28;20399;-87
2022/01/26 19:29:26;;;;;;;135.82;71.07;;;;;;;;;;5107849;28;20399;-86
2022/01/26 19:32:30;;;;;;;135.65;71.75;;;;;;;;;;5106968;28;20421;-86
2022/01/26 19:46:03;;;;;;;135.85;70.75;;;;;;;;;;5106705;28;20414;-85
2022/01/26 19:51:17;;;;;;;130.13;67.83;;;;;;;;;;5113973;28;20440;-88
2022/01/26 19:53:43;;;;;;;135.00;70.40;;;;;;;;;;5124612;28;20514;-83
2022/01/26 19:58:48;;;;;;;147.73;78.10;;;;;;;;;;5143058;22;20424;-89
2022/01/26 20:01:15;;;;;;;141.18;74.28;;;;;;;;;;5043324;28;20407;-88
2022/01/26 20:03:43;;;;;;;140.65;75.70;;;;;;;;;;5031572;28;20408;-88
2022/01/26 20:06:12;;;;;;;137.60;72.13;;;;;;;;;;5042202;28;20403;-88
2022/01/26 20:08:52;;;;;;;135.88;72.90;;;;;;;;;;5029341;28;20863;-89
2022/01/26 20:11:26;;;;;;;134.15;71.90;;;;;;;;;;5048919;28;20408;-88
2022/01/26 20:14:00;;;;;;;133.37;72.03;;;;;;;;;;5046538;28;20508;-87
2022/01/26 20:16:27;;;;;;;142.18;74.82;;;;;;;;;;5045992;28;20930;-88